Time;durP1;ratioP1;P1;durP2;ratioP2;P2;SDS_P1;SDS_P2;PMS_P1;PMS_P2;Temp;Humidity;BMP_temperature;BMP_pressure;BME280_temperature;BME280_humidity;BME280_pressure;Samples;Min_cycle;Max_cycle;Signal;HPM_P1;HPM_P2
2021/05/04 00:01:56;;;;;;;0.57;0.57;;;9.00;59.80;;;;;;5034057;28;20428;-81
2021/05/04 00:04:21;;;;;;;0.80;0.68;;;9.10;59.80;;;;;;5052126;28;20080;-81
2021/05/04 00:06:47;;;;;;;2.17;0.60;;;9.00;59.70;;;;;;5059778;28;20020;-81
2021/05/04 00:09:13;;;;;;;0.73;0.70;;;9.00;59.90;;;;;;5041744;28;20021;-82
2021/05/04 00:11:39;;;;;;;1.40;0.95;;;9.00;59.90;;;;;;5060571;28;20545;-81
2021/05/04 00:14:05;;;;;;;2.22;0.73;;;9.00;60.10;;;;;;5054566;28;20085;-81
2021/05/04 00:16:32;;;;;;;1.45;0.57;;;9.00;60.00;;;;;;5053829;28;20474;-80
2021/05/04 00:18:58;;;;;;;2.53;0.52;;;9.00;59.90;;;;;;5053712;28;20033;-82
2021/05/04 00:21:23;;;;;;;2.17;0.50;;;9.00;59.60;;;;;;5033841;28;20017;-81
2021/05/04 00:23:49;;;;;;;1.50;0.80;;;8.90;60.10;;;;;;5051779;28;20036;-81
2021/05/04 00:26:15;;;;;;;0.82;0.50;;;8.90;60.00;;;;;;5048352;28;20421;-83
2021/05/04 00:28:41;;;;;;;1.25;0.52;;;8.80;59.90;;;;;;5052017;28;20033;-82
2021/05/04 00:31:07;;;;;;;0.55;0.22;;;8.80;60.00;;;;;;5033980;28;20029;-82
2021/05/04 00:33:32;;;;;;;1.20;0.40;;;8.80;60.00;;;;;;5052160;28;20021;-83
2021/05/04 00:35:58;;;;;;;0.80;0.50;;;8.70;59.90;;;;;;5057044;28;20150;-83
2021/05/04 00:38:24;;;;;;;2.10;1.05;;;8.70;59.90;;;;;;5034662;28;20033;-84
2021/05/04 00:40:50;;;;;;;3.15;0.70;;;8.70;59.90;;;;;;5061774;28;20074;-81
2021/05/04 00:43:17;;;;;;;0.75;0.50;;;8.70;60.00;;;;;;5056710;28;20463;-82
2021/05/04 00:45:43;;;;;;;0.68;0.30;;;8.70;59.60;;;;;;5055839;28;20467;-83
2021/05/04 00:48:09;;;;;;;0.43;0.43;;;8.70;59.70;;;;;;5055545;28;20029;-81
2021/05/04 00:50:35;;;;;;;3.60;0.63;;;8.70;59.60;;;;;;5055407;28;20021;-83
2021/05/04 00:53:02;;;;;;;2.00;0.50;;;8.70;59.60;;;;;;5033048;28;20042;-82
2021/05/04 00:55:32;;;;;;;1.23;0.90;;;8.80;59.80;;;;;;5033083;28;20033;-82
2021/05/04 00:57:59;;;;;;;0.98;0.70;;;8.80;59.60;;;;;;5032914;28;20146;-82
2021/05/04 01:00:25;;;;;;;4.13;1.50;;;8.70;59.30;;;;;;5033097;28;20029;-82
2021/05/04 01:02:52;;;;;;;0.40;0.40;;;8.50;59.00;;;;;;5032838;28;20048;-83
2021/05/04 01:05:17;;;;;;;0.88;0.77;;;8.30;59.50;;;;;;5033232;28;20109;-82
2021/05/04 01:07:43;;;;;;;0.40;0.40;;;8.20;60.10;;;;;;5033315;28;20455;-83
2021/05/04 01:10:10;;;;;;;1.48;0.40;;;8.10;60.30;;;;;;5032934;28;20021;-83
2021/05/04 01:12:35;;;;;;;1.52;0.73;;;8.10;60.20;;;;;;5032855;28;20144;-82
2021/05/04 01:15:01;;;;;;;0.70;0.40;;;8.00;60.40;;;;;;5032626;28;20041;-82
2021/05/04 01:17:27;;;;;;;0.90;0.40;;;7.90;60.30;;;;;;5034236;28;20529;-82
2021/05/04 01:19:53;;;;;;;0.50;0.50;;;7.90;60.60;;;;;;5035093;28;20458;-81
2021/05/04 01:22:19;;;;;;;0.55;0.40;;;7.80;60.30;;;;;;5034593;28;20516;-81
2021/05/04 01:24:45;;;;;;;1.13;0.45;;;7.70;60.50;;;;;;5033873;28;20044;-81
2021/05/04 01:27:14;;;;;;;0.73;0.50;;;7.70;60.70;;;;;;5033587;28;20108;-82
2021/05/04 01:29:40;;;;;;;1.70;0.40;;;7.70;60.80;;;;;;5036266;28;20044;-83
2021/05/04 01:32:07;;;;;;;0.82;0.43;;;7.60;60.90;;;;;;5032902;28;20032;-83
2021/05/04 01:34:33;;;;;;;0.53;0.50;;;7.60;60.90;;;;;;5054765;28;20036;-82
2021/05/04 01:36:59;;;;;;;0.77;0.50;;;7.60;60.80;;;;;;5052803;28;20753;-83
2021/05/04 01:39:48;;;;;;;0.30;0.30;;;7.70;61.10;;;;;;5054297;28;20092;-83
2021/05/04 01:42:16;;;;;;;1.10;0.60;;;7.80;60.80;;;;;;5040453;28;20021;-81
2021/05/04 01:44:42;;;;;;;0.30;0.30;;;7.90;60.90;;;;;;5052976;28;20029;-80
2021/05/04 01:47:11;;;;;;;1.17;0.73;;;8.00;60.70;;;;;;5054402;28;20029;-82
2021/05/04 01:49:37;;;;;;;0.57;0.45;;;8.00;60.80;;;;;;5055113;28;20124;-82
2021/05/04 01:52:05;;;;;;;2.03;0.60;;;8.10;60.70;;;;;;5053054;28;20049;-82
2021/05/04 01:54:31;;;;;;;;;;;8.10;60.70;;;;;;5055704;28;20028;-82
2021/05/04 01:56:58;;;;;;;1.30;1.20;;;8.20;60.60;;;;;;5055371;28;19904;-81
2021/05/04 01:59:28;;;;;;;3.20;0.50;;;8.20;60.70;;;;;;5055297;28;20029;-81
2021/05/04 02:01:54;;;;;;;1.40;0.70;;;8.10;60.90;;;;;;5060128;28;20109;-81
2021/05/04 02:04:21;;;;;;;0.73;0.50;;;8.10;61.10;;;;;;5051679;28;20056;-81
2021/05/04 02:06:46;;;;;;;2.83;0.90;;;8.30;61.30;;;;;;5061083;28;20023;-81
2021/05/04 02:09:13;;;;;;;1.58;0.65;;;8.30;61.10;;;;;;5052141;28;20486;-81
2021/05/04 02:11:39;;;;;;;0.85;0.45;;;8.30;61.00;;;;;;5054083;28;20020;-82
2021/05/04 02:14:08;;;;;;;0.40;0.30;;;8.30;61.10;;;;;;5053417;28;20387;-83
2021/05/04 02:16:35;;;;;;;1.10;0.95;;;8.30;61.40;;;;;;5053819;28;20024;-80
2021/05/04 02:19:01;;;;;;;1.58;0.57;;;8.20;61.70;;;;;;5051629;28;20494;-83
2021/05/04 02:21:27;;;;;;;0.50;0.40;;;8.20;61.70;;;;;;5053588;28;20032;-82
2021/05/04 02:23:53;;;;;;;2.10;1.13;;;8.20;61.70;;;;;;5053625;28;20033;-81
2021/05/04 02:26:22;;;;;;;5.45;0.80;;;8.20;61.50;;;;;;5052971;28;20027;-85
2021/05/04 02:28:48;;;;;;;2.67;0.70;;;8.20;61.60;;;;;;5051499;28;20098;-81
2021/05/04 02:31:14;;;;;;;0.68;0.50;;;8.20;61.40;;;;;;5047580;28;20028;-81
2021/05/04 02:33:41;;;;;;;0.65;0.60;;;8.20;61.80;;;;;;5053842;28;20025;-81
2021/05/04 02:36:08;;;;;;;0.32;0.32;;;8.20;61.60;;;;;;5055898;28;20032;-80
2021/05/04 02:38:34;;;;;;;0.63;0.50;;;8.20;61.30;;;;;;5056190;28;20102;-82
2021/05/04 02:41:04;;;;;;;1.13;0.80;;;8.10;61.70;;;;;;5052122;28;20509;-81
2021/05/04 02:43:30;;;;;;;0.57;0.47;;;8.20;61.90;;;;;;5051225;28;20045;-82
2021/05/04 02:45:56;;;;;;;1.02;0.70;;;8.20;61.80;;;;;;5053631;28;20076;-80
2021/05/04 02:48:22;;;;;;;1.15;0.55;;;8.20;61.50;;;;;;5051939;28;20059;-81
2021/05/04 02:50:48;;;;;;;1.02;0.65;;;8.20;61.90;;;;;;5052995;28;20083;-82
2021/05/04 02:53:14;;;;;;;1.13;0.90;;;8.10;61.90;;;;;;5052947;28;20029;-80
2021/05/04 02:55:40;;;;;;;1.80;0.50;;;8.10;61.90;;;;;;5052789;28;20028;-80
2021/05/04 02:58:06;;;;;;;0.57;0.50;;;8.10;61.90;;;;;;5052984;28;20032;-81
2021/05/04 03:00:32;;;;;;;1.17;0.63;;;8.00;62.10;;;;;;5052573;28;20025;-81
2021/05/04 03:02:57;;;;;;;0.63;0.50;;;8.00;62.50;;;;;;5052945;28;20216;-81
2021/05/04 03:05:23;;;;;;;7.47;1.02;;;8.00;62.70;;;;;;5052083;28;20131;-80
2021/05/04 03:07:49;;;;;;;0.95;0.60;;;8.10;62.70;;;;;;5053015;28;20027;-82
2021/05/04 03:10:15;;;;;;;0.52;0.47;;;8.10;62.60;;;;;;5051432;28;20505;-82
2021/05/04 03:12:41;;;;;;;2.15;0.68;;;8.10;62.80;;;;;;5052451;28;20021;-81
2021/05/04 03:15:08;;;;;;;1.13;0.70;;;8.00;62.80;;;;;;5051157;28;20070;-81
2021/05/04 03:17:33;;;;;;;1.23;0.85;;;8.10;62.80;;;;;;5052526;28;20028;-81
2021/05/04 03:19:59;;;;;;;1.23;0.80;;;8.10;62.90;;;;;;5052657;28;20017;-81
2021/05/04 03:22:25;;;;;;;2.05;0.68;;;8.10;63.00;;;;;;5051514;28;20040;-81
2021/05/04 03:24:51;;;;;;;0.85;0.50;;;8.20;63.10;;;;;;5052257;28;20394;-81
2021/05/04 03:27:17;;;;;;;0.40;0.35;;;8.20;63.10;;;;;;5054239;28;20031;-80
2021/05/04 03:29:43;;;;;;;0.80;0.70;;;8.20;63.10;;;;;;5047722;28;20053;-83
2021/05/04 03:32:09;;;;;;;0.93;0.60;;;8.10;63.60;;;;;;5052312;28;20393;-82
2021/05/04 03:34:35;;;;;;;0.77;0.57;;;8.00;64.30;;;;;;5052283;28;20025;-81
2021/05/04 03:37:02;;;;;;;1.65;0.57;;;8.00;65.60;;;;;;5052176;28;20032;-82
2021/05/04 03:39:29;;;;;;;1.38;0.82;;;7.90;65.00;;;;;;5052592;28;20033;-83
2021/05/04 03:41:54;;;;;;;1.50;0.27;;;7.80;65.00;;;;;;5052236;28;20029;-82
2021/05/04 03:44:20;;;;;;;0.40;0.40;;;7.70;64.90;;;;;;5052657;28;20536;-83
2021/05/04 03:46:47;;;;;;;1.40;0.55;;;7.60;65.40;;;;;;5053329;28;20033;-85
2021/05/04 03:49:13;;;;;;;2.33;0.68;;;7.60;65.30;;;;;;5055915;28;20474;-82
2021/05/04 03:51:39;;;;;;;1.63;0.30;;;7.50;65.30;;;;;;5053869;28;20031;-82
2021/05/04 03:54:06;;;;;;;0.43;0.30;;;7.50;65.40;;;;;;5053015;28;20421;-83
2021/05/04 03:56:35;;;;;;;0.20;0.20;;;7.50;65.80;;;;;;5054503;28;20379;-80
2021/05/04 03:59:01;;;;;;;1.25;0.60;;;7.50;65.80;;;;;;5059933;28;20092;-80
2021/05/04 04:01:26;;;;;;;1.45;0.30;;;7.50;66.00;;;;;;5067320;28;20025;-81
2021/05/04 04:03:52;;;;;;;2.88;0.73;;;7.60;65.70;;;;;;5060376;28;20111;-81
2021/05/04 04:06:19;;;;;;;0.90;0.57;;;7.60;66.10;;;;;;5052224;28;20032;-84
2021/05/04 04:08:46;;;;;;;1.25;0.70;;;7.80;66.00;;;;;;5051006;28;20501;-82
2021/05/04 04:11:13;;;;;;;0.63;0.50;;;7.90;65.50;;;;;;5050638;28;20064;-81
2021/05/04 04:13:39;;;;;;;1.23;0.50;;;8.10;65.60;;;;;;5050640;28;20098;-80
2021/05/04 04:16:05;;;;;;;1.58;0.93;;;8.40;64.50;;;;;;5051804;28;20027;-80
2021/05/04 04:18:31;;;;;;;0.70;0.40;;;8.80;63.20;;;;;;5054825;28;20024;-81
2021/05/04 04:20:57;;;;;;;0.50;0.50;;;9.00;62.80;;;;;;5055815;28;20143;-82
2021/05/04 04:23:23;;;;;;;1.10;0.70;;;9.10;62.30;;;;;;5055538;28;20471;-81
2021/05/04 04:25:50;;;;;;;0.80;0.63;;;9.20;61.80;;;;;;5051096;28;20029;-81
2021/05/04 04:28:16;;;;;;;0.77;0.50;;;9.10;61.40;;;;;;5052462;28;20049;-81
2021/05/04 04:30:45;;;;;;;2.40;0.50;;;9.00;62.50;;;;;;5055464;28;20057;-83
2021/05/04 04:33:11;;;;;;;1.05;0.70;;;8.70;63.80;;;;;;5055608;28;20036;-81
2021/05/04 04:35:37;;;;;;;0.90;0.50;;;8.30;65.20;;;;;;5055485;28;20021;-81
2021/05/04 04:38:02;;;;;;;0.57;0.57;;;8.00;66.60;;;;;;5055777;28;20113;-82
2021/05/04 04:40:31;;;;;;;0.60;0.60;;;7.90;67.70;;;;;;5054403;28;20037;-83
2021/05/04 04:42:59;;;;;;;3.83;0.55;;;7.80;68.80;;;;;;5038050;28;20035;-82
2021/05/04 04:45:28;;;;;;;0.98;0.70;;;7.90;69.40;;;;;;5055519;28;20029;-80
2021/05/04 04:47:54;;;;;;;1.55;0.52;;;7.80;69.70;;;;;;5056581;28;20789;-82
2021/05/04 04:50:20;;;;;;;1.23;0.60;;;7.50;70.80;;;;;;5057570;28;20033;-83
2021/05/04 04:52:45;;;;;;;3.25;0.52;;;7.40;71.50;;;;;;5056638;28;20032;-85
2021/05/04 04:55:11;;;;;;;1.05;0.47;;;7.00;72.60;;;;;;5055257;28;20028;-80
2021/05/04 04:57:37;;;;;;;1.85;0.68;;;6.80;74.00;;;;;;5036992;28;20078;-83
2021/05/04 05:00:04;;;;;;;0.88;0.63;;;6.50;75.60;;;;;;5055406;28;20043;-83
2021/05/04 05:02:30;;;;;;;0.52;0.40;;;6.50;76.70;;;;;;5055250;28;20024;-83
2021/05/04 05:04:56;;;;;;;0.63;0.45;;;6.60;76.90;;;;;;5055368;28;20417;-83
2021/05/04 05:07:21;;;;;;;0.30;0.30;;;6.90;77.00;;;;;;5054642;28;20540;-82
2021/05/04 05:09:47;;;;;;;1.10;0.40;;;7.80;75.50;;;;;;5055194;28;20452;-84
2021/05/04 05:12:14;;;;;;;0.77;0.60;;;9.10;71.30;;;;;;5056215;28;20521;-83
2021/05/04 05:14:40;;;;;;;1.27;0.50;;;9.90;66.40;;;;;;5056195;28;20037;-84
2021/05/04 05:17:06;;;;;;;0.73;0.63;;;11.00;62.40;;;;;;5056759;28;20522;-83
2021/05/04 05:19:32;;;;;;;1.50;0.30;;;11.60;58.60;;;;;;5055262;28;20100;-84
2021/05/04 05:22:00;;;;;;;0.20;0.20;;;11.80;57.10;;;;;;5057032;28;20020;-84
2021/05/04 05:24:27;;;;;;;0.77;0.60;;;12.20;53.80;;;;;;5059017;28;20398;-83
2021/05/04 05:26:53;;;;;;;3.50;1.00;;;12.20;53.10;;;;;;5055007;28;20017;-85
2021/05/04 05:29:19;;;;;;;0.68;0.50;;;12.60;54.00;;;;;;5053016;28;20391;-84
2021/05/04 05:31:45;;;;;;;1.05;0.50;;;13.40;51.80;;;;;;5055703;28;20032;-83
2021/05/04 05:34:11;;;;;;;0.47;0.40;;;14.10;49.30;;;;;;5038819;28;20514;-85
2021/05/04 05:36:36;;;;;;;0.93;0.43;;;14.40;48.50;;;;;;5054733;28;20052;-84
2021/05/04 05:39:03;;;;;;;0.30;0.30;;;14.70;47.00;;;;;;5055087;28;20024;-83
2021/05/04 05:41:29;;;;;;;0.98;0.50;;;15.50;44.90;;;;;;5055241;28;20028;-83
2021/05/04 05:43:55;;;;;;;14.57;1.85;;;15.70;43.90;;;;;;5048048;28;20045;-82
2021/05/04 05:46:22;;;;;;;1.02;0.52;;;15.00;44.50;;;;;;5053783;28;20052;-83
2021/05/04 05:48:48;;;;;;;0.95;0.50;;;13.90;45.10;;;;;;5054714;28;20108;-84
2021/05/04 05:51:14;;;;;;;4.68;0.57;;;12.60;47.40;;;;;;5054546;28;20100;-84
2021/05/04 05:53:39;;;;;;;1.35;0.45;;;11.50;50.50;;;;;;5055130;28;20032;-82
2021/05/04 05:56:07;;;;;;;3.50;0.63;;;11.10;52.30;;;;;;5054884;28;20101;-82
2021/05/04 05:58:32;;;;;;;3.00;0.80;;;10.90;53.80;;;;;;5057336;28;20021;-83
2021/05/04 06:00:59;;;;;;;2.83;0.63;;;10.30;56.40;;;;;;5066173;28;20029;-82
2021/05/04 06:03:25;;;;;;;1.27;0.50;;;9.40;61.30;;;;;;5055884;28;20520;-83
2021/05/04 06:05:51;;;;;;;0.60;0.60;;;7.90;68.00;;;;;;5054323;28;20017;-82
2021/05/04 06:08:18;;;;;;;0.70;0.50;;;7.00;73.00;;;;;;5054388;28;20024;-83
2021/05/04 06:10:44;;;;;;;0.52;0.50;;;6.50;76.30;;;;;;5055657;28;20448;-82
2021/05/04 06:13:10;;;;;;;0.70;0.70;;;6.50;77.90;;;;;;5055439;28;20029;-83
2021/05/04 06:15:41;;;;;;;2.55;0.68;;;7.30;77.80;;;;;;5043391;28;20021;-83
2021/05/04 06:18:07;;;;;;;0.63;0.55;;;7.70;75.90;;;;;;5052005;28;20021;-83
2021/05/04 06:20:33;;;;;;;0.70;0.70;;;7.90;75.30;;;;;;5052601;28;20394;-82
2021/05/04 06:22:59;;;;;;;1.38;0.30;;;8.30;74.50;;;;;;5053353;28;20115;-84
2021/05/04 06:25:25;;;;;;;0.75;0.47;;;10.10;72.00;;;;;;5041974;28;20428;-83
2021/05/04 06:27:53;;;;;;;0.43;0.40;;;12.60;65.60;;;;;;5053641;28;20021;-81
2021/05/04 06:30:19;;;;;;;1.40;0.98;;;15.20;55.00;;;;;;5053941;28;20128;-82
2021/05/04 06:32:48;;;;;;;2.25;0.70;;;16.30;50.20;;;;;;5053793;28;20071;-84
2021/05/04 06:35:19;;;;;;;3.35;0.88;;;18.00;46.40;;;;;;5053017;28;20017;-84
2021/05/04 06:37:46;;;;;;;1.80;0.35;;;20.00;41.10;;;;;;5053439;28;20069;-83
2021/05/04 06:40:16;;;;;;;1.33;0.55;;;20.40;38.50;;;;;;5052344;28;20104;-81
2021/05/04 06:42:42;;;;;;;0.70;0.35;;;20.80;37.90;;;;;;5052242;28;20056;-82
2021/05/04 06:45:08;;;;;;;1.45;1.25;;;21.60;35.70;;;;;;5051410;28;20029;-82
2021/05/04 06:47:34;;;;;;;2.15;0.50;;;21.20;35.80;;;;;;5053229;28;20044;-82
2021/05/04 06:50:00;;;;;;;0.30;0.30;;;21.50;35.90;;;;;;5054122;28;20021;-83
2021/05/04 06:52:26;;;;;;;0.75;0.52;;;21.80;33.20;;;;;;5053659;28;20446;-83
2021/05/04 06:54:52;;;;;;;0.75;0.52;;;20.80;34.40;;;;;;5053367;28;20025;-83
2021/05/04 06:57:19;;;;;;;2.03;0.40;;;19.80;34.80;;;;;;5053242;28;20098;-83
2021/05/04 06:59:45;;;;;;;0.30;0.30;;;17.90;36.80;;;;;;5053011;28;20029;-83
2021/05/04 07:02:10;;;;;;;1.50;0.57;;;16.80;39.50;;;;;;5052546;28;20497;-82
2021/05/04 07:04:36;;;;;;;1.83;0.50;;;15.40;39.90;;;;;;5052015;28;20025;-81
2021/05/04 07:07:02;;;;;;;3.33;0.55;;;13.90;42.80;;;;;;5052894;28;20062;-82
2021/05/04 07:09:28;;;;;;;0.22;0.22;;;12.80;46.70;;;;;;5052974;28;20017;-82
2021/05/04 07:11:54;;;;;;;1.13;0.40;;;11.60;51.70;;;;;;5052893;28;20031;-82
2021/05/04 07:14:20;;;;;;;1.73;0.38;;;10.30;56.10;;;;;;5050727;28;20021;-83
2021/05/04 07:16:47;;;;;;;3.05;0.93;;;9.30;60.50;;;;;;5052860;28;20029;-83
2021/05/04 07:19:13;;;;;;;2.55;0.85;;;8.80;63.50;;;;;;5051270;28;20025;-83
2021/05/04 07:21:39;;;;;;;0.80;0.60;;;8.50;65.40;;;;;;5053068;28;20021;-82
2021/05/04 07:24:12;;;;;;;1.38;0.60;;;8.20;66.50;;;;;;5043500;28;20367;-82
2021/05/04 07:26:39;;;;;;;2.28;0.88;;;7.80;68.10;;;;;;5048592;28;20032;-83
2021/05/04 07:29:05;;;;;;;2.50;0.80;;;7.90;70.20;;;;;;5050942;28;20041;-81
2021/05/04 07:31:34;;;;;;;0.63;0.55;;;8.40;69.20;;;;;;5052228;28;20025;-81
2021/05/04 07:34:03;;;;;;;0.43;0.30;;;8.90;66.90;;;;;;5051178;28;20112;-83
2021/05/04 07:36:30;;;;;;;0.47;0.30;;;9.10;64.30;;;;;;5051403;28;20048;-82
2021/05/04 07:38:59;;;;;;;;;;;9.20;63.30;;;;;;5051722;28;20389;-82
2021/05/04 07:41:26;;;;;;;1.42;0.70;;;9.40;60.60;;;;;;5053213;28;19911;-82
2021/05/04 07:43:52;;;;;;;2.03;0.47;;;9.60;60.50;;;;;;5052769;28;20407;-82
2021/05/04 07:46:19;;;;;;;0.50;0.50;;;10.00;59.20;;;;;;5054187;28;20049;-83
2021/05/04 07:48:45;;;;;;;2.13;0.45;;;10.20;56.80;;;;;;5053422;28;20059;-82
2021/05/04 07:51:14;;;;;;;0.47;0.30;;;10.40;56.20;;;;;;5054098;28;20413;-84
2021/05/04 07:53:40;;;;;;;2.50;0.60;;;10.40;54.80;;;;;;5056398;28;20021;-84
2021/05/04 07:56:06;;;;;;;1.27;0.57;;;10.20;55.70;;;;;;5057425;28;20166;-83
2021/05/04 07:58:32;;;;;;;3.88;1.02;;;10.30;55.50;;;;;;5065038;28;20037;-82
2021/05/04 08:00:58;;;;;;;1.98;0.55;;;10.50;55.60;;;;;;5064758;28;20034;-82
2021/05/04 08:03:24;;;;;;;1.10;0.50;;;10.80;54.70;;;;;;5056345;28;20068;-81
2021/05/04 08:05:50;;;;;;;2.88;0.68;;;10.90;54.10;;;;;;5056013;28;20059;-85
2021/05/04 08:08:17;;;;;;;1.67;0.70;;;11.00;54.00;;;;;;5056089;28;20152;-81
2021/05/04 08:10:43;;;;;;;2.25;0.93;;;11.00;53.00;;;;;;5036789;28;20486;-84
2021/05/04 08:13:09;;;;;;;1.08;0.80;;;10.70;54.20;;;;;;5048743;28;20028;-81
2021/05/04 08:15:36;;;;;;;1.63;1.10;;;10.60;54.50;;;;;;5050132;28;20021;-82
2021/05/04 08:18:05;;;;;;;1.65;0.80;;;10.50;53.70;;;;;;5052657;28;20025;-81
2021/05/04 08:20:33;;;;;;;2.58;0.60;;;10.00;54.50;;;;;;5055794;28;20098;-81
2021/05/04 08:23:01;;;;;;;1.27;0.40;;;9.70;57.10;;;;;;5045579;28;20037;-81
2021/05/04 08:25:29;;;;;;;0.88;0.40;;;9.50;59.60;;;;;;5055498;28;20450;-81
2021/05/04 08:27:55;;;;;;;1.20;0.40;;;9.50;60.30;;;;;;5052514;28;20028;-80
2021/05/04 08:30:21;;;;;;;0.20;0.20;;;9.40;59.80;;;;;;5055667;28;20041;-81
2021/05/04 08:32:49;;;;;;;1.38;0.82;;;9.30;58.50;;;;;;5055906;28;20141;-82
2021/05/04 08:35:15;;;;;;;0.85;0.50;;;9.20;58.30;;;;;;5055520;28;20021;-81
2021/05/04 08:37:41;;;;;;;1.27;0.50;;;9.00;57.60;;;;;;5056258;28;20104;-81
2021/05/04 08:40:07;;;;;;;1.75;0.68;;;8.90;58.30;;;;;;5036156;28;20446;-81
2021/05/04 08:42:34;;;;;;;4.28;1.25;;;8.70;59.20;;;;;;5044869;28;20028;-83
2021/05/04 08:45:03;;;;;;;1.10;0.50;;;9.00;59.80;;;;;;5056851;28;20480;-82
2021/05/04 08:47:29;;;;;;;1.38;0.32;;;9.30;59.20;;;;;;5056348;28;20517;-82
2021/05/04 08:49:56;;;;;;;0.90;0.60;;;9.50;58.40;;;;;;5056791;28;20029;-80
2021/05/04 08:52:21;;;;;;;5.75;1.05;;;9.70;58.20;;;;;;5062283;28;20024;-82
2021/05/04 08:54:47;;;;;;;0.77;0.60;;;9.70;58.50;;;;;;5063157;28;20033;-84
2021/05/04 08:57:13;;;;;;;0.80;0.40;;;10.00;57.20;;;;;;5060031;28;20489;-83
2021/05/04 08:59:39;;;;;;;2.30;1.42;;;10.10;55.70;;;;;;5057158;28;20426;-85
2021/05/04 09:02:05;;;;;;;0.60;0.50;;;9.90;57.20;;;;;;5056698;28;20331;-82
2021/05/04 09:04:54;;;;;;;1.75;1.02;;;10.10;56.30;;;;;;5056515;28;20060;-86
2021/05/04 09:13:08;;;;;;;0.88;0.70;;;9.80;59.60;;;;;;5062017;28;20053;-88
2021/05/04 09:21:08;;;;;;;1.52;0.70;;;8.80;68.40;;;;;;5054885;28;20053;-86
2021/05/04 09:23:35;;;;;;;1.67;1.00;;;9.00;69.50;;;;;;5029883;28;20032;-90
2021/05/04 09:26:01;;;;;;;0.73;0.45;;;9.40;69.10;;;;;;5037790;28;20029;-86
2021/05/04 09:28:26;;;;;;;8.70;1.75;;;10.00;66.10;;;;;;5043941;28;20580;-86
2021/05/04 09:30:57;;;;;;;1.98;0.85;;;10.10;65.30;;;;;;5061732;28;20123;-88
2021/05/04 09:33:24;;;;;;;3.45;1.95;;;10.20;64.10;;;;;;5054553;28;20102;-85
2021/05/04 09:35:50;;;;;;;0.70;0.50;;;10.30;64.30;;;;;;5053238;28;20455;-87
2021/05/04 09:38:18;;;;;;;1.60;0.90;;;10.30;62.10;;;;;;5052894;28;20037;-86
2021/05/04 09:40:48;;;;;;;2.83;1.38;;;10.20;61.30;;;;;;5039681;28;20025;-85
2021/05/04 09:43:18;;;;;;;2.65;1.65;;;10.60;60.60;;;;;;5056709;28;20033;-85
2021/05/04 09:45:54;;;;;;;1.58;1.42;;;11.10;59.40;;;;;;5061210;28;20025;-85
2021/05/04 09:48:32;;;;;;;0.47;0.47;;;11.70;57.70;;;;;;5056241;28;20033;-88
2021/05/04 09:51:15;;;;;;;1.42;0.50;;;11.90;55.40;;;;;;5053154;28;20150;-86
2021/05/04 09:56:15;;;;;;;2.10;1.02;;;12.40;54.10;;;;;;5053269;28;20045;-84
2021/05/04 09:58:47;;;;;;;0.68;0.50;;;12.50;53.60;;;;;;5054208;28;20397;-86
2021/05/04 10:01:14;;;;;;;1.00;0.73;;;12.00;53.10;;;;;;5036380;28;20021;-85
2021/05/04 10:03:43;;;;;;;2.47;1.05;;;11.00;55.90;;;;;;5053801;28;20461;-85
2021/05/04 10:06:12;;;;;;;4.85;1.65;;;10.30;58.90;;;;;;5052436;28;20030;-84
2021/05/04 10:08:39;;;;;;;4.53;1.77;;;8.70;65.00;;;;;;5054526;28;20064;-84
2021/05/04 10:11:10;;;;;;;4.32;1.38;;;7.10;71.00;;;;;;5056811;28;20017;-85
2021/05/04 10:13:38;;;;;;;0.65;0.50;;;6.40;75.60;;;;;;5058425;28;20112;-89
2021/05/04 10:16:06;;;;;;;0.55;0.50;;;6.20;78.00;;;;;;5055135;28;20470;-87
2021/05/04 10:18:32;;;;;;;;;;;6.20;78.60;;;;;;5056549;28;20049;-84
2021/05/04 10:21:18;;;;;;;1.23;0.80;;;6.50;77.80;;;;;;5057827;28;19999;-88
2021/05/04 10:23:47;;;;;;;1.90;1.03;;;6.90;78.20;;;;;;5060242;28;20029;-91
2021/05/04 10:26:17;;;;;;;6.95;5.18;;;7.20;77.10;;;;;;5056693;28;20083;-89
2021/05/04 10:28:49;;;;;;;2.92;1.73;;;7.10;77.40;;;;;;5054961;28;20123;-86
2021/05/04 10:31:19;;;;;;;1.77;1.10;;;7.40;77.40;;;;;;5055559;28;20021;-87
2021/05/04 10:33:45;;;;;;;1.02;1.00;;;7.80;76.50;;;;;;5055308;28;20029;-89
2021/05/04 10:36:37;;;;;;;1.13;0.80;;;8.20;76.00;;;;;;5057103;28;20017;-91
2021/05/04 10:39:05;;;;;;;1.83;1.10;;;8.70;74.70;;;;;;5042142;28;20033;-89
2021/05/04 10:41:55;;;;;;;3.53;0.70;;;8.90;74.00;;;;;;5037946;28;20029;-84
2021/05/04 10:44:21;;;;;;;3.88;1.50;;;9.10;72.90;;;;;;5055266;28;20033;-87
2021/05/04 10:46:46;;;;;;;1.88;1.20;;;9.10;70.40;;;;;;5055057;28;20029;-89
2021/05/04 10:49:58;;;;;;;0.70;0.47;;;9.00;71.20;;;;;;5038714;28;20029;-84
2021/05/04 10:52:57;;;;;;;1.48;0.80;;;9.00;70.50;;;;;;5032747;28;20178;-84
2021/05/04 10:55:26;;;;;;;1.45;0.85;;;8.50;72.10;;;;;;5035503;28;20033;-82
2021/05/04 10:58:01;;;;;;;3.13;0.85;;;8.20;73.30;;;;;;5055145;28;20102;-82
2021/05/04 11:00:48;;;;;;;2.45;0.95;;;7.50;74.00;;;;;;5053898;28;20067;-82
2021/05/04 11:03:32;;;;;;;4.47;0.95;;;6.80;77.50;;;;;;5052741;28;20036;-81
2021/05/04 11:06:11;;;;;;;1.23;0.68;;;6.60;79.60;;;;;;5052117;28;20100;-85
2021/05/04 11:08:40;;;;;;;0.95;0.50;;;6.30;81.90;;;;;;5053417;28;20021;-85
2021/05/04 11:11:26;;;;;;;2.28;0.68;;;6.40;83.40;;;;;;5053862;28;20021;-85
2021/05/04 11:13:54;;;;;;;1.10;0.73;;;6.60;83.40;;;;;;5056827;28;20043;-84
2021/05/04 11:16:48;;;;;;;1.33;0.60;;;7.00;83.10;;;;;;5053099;28;20056;-87
2021/05/04 11:19:42;;;;;;;0.80;0.40;;;7.30;81.80;;;;;;5046786;28;20453;-84
2021/05/04 11:22:15;;;;;;;1.58;0.88;;;7.50;79.50;;;;;;5035569;28;20131;-85
2021/05/04 11:24:48;;;;;;;1.80;0.70;;;7.40;79.50;;;;;;5055587;28;20540;-84
2021/05/04 11:27:18;;;;;;;2.35;0.85;;;7.50;78.90;;;;;;5055817;28;20025;-85
2021/05/04 11:29:47;;;;;;;1.42;0.80;;;7.70;76.90;;;;;;5042355;28;20037;-92
2021/05/04 11:32:43;;;;;;;2.80;1.17;;;7.70;77.60;;;;;;5036077;28;20033;-87
2021/05/04 11:35:10;;;;;;;1.63;1.00;;;7.90;78.40;;;;;;5038373;28;20096;-89
2021/05/04 11:37:40;;;;;;;1.58;0.90;;;8.30;77.10;;;;;;5002581;28;20168;-84
2021/05/04 11:40:21;;;;;;;2.95;0.95;;;8.40;75.40;;;;;;5034058;28;20136;-86
2021/05/04 11:43:00;;;;;;;3.17;1.00;;;8.40;74.70;;;;;;5016506;28;20038;-86
2021/05/04 11:45:31;;;;;;;0.57;0.50;;;8.50;73.60;;;;;;5013597;28;20026;-84
2021/05/04 11:48:10;;;;;;;1.65;0.80;;;8.60;72.00;;;;;;5030679;28;20076;-90
2021/05/04 11:50:37;;;;;;;2.10;1.13;;;8.60;72.50;;;;;;5009776;28;20079;-82
2021/05/04 11:53:09;;;;;;;2.47;0.60;;;8.80;71.60;;;;;;5039683;28;20047;-87
2021/05/04 11:55:44;;;;;;;0.57;0.57;;;8.90;70.80;;;;;;5018551;28;20750;-86
2021/05/04 11:58:14;;;;;;;1.20;0.60;;;8.80;69.20;;;;;;5033699;28;20022;-86
2021/05/04 12:00:40;;;;;;;1.23;0.60;;;8.70;69.00;;;;;;5033213;28;20021;-83
2021/05/04 12:03:11;;;;;;;0.63;0.55;;;8.40;69.50;;;;;;5033203;28;20099;-83
2021/05/04 12:05:38;;;;;;;2.08;0.90;;;8.00;69.80;;;;;;5034794;28;20470;-86
2021/05/04 12:08:05;;;;;;;1.08;0.63;;;7.80;71.80;;;;;;5033465;28;20072;-84
2021/05/04 12:10:36;;;;;;;4.35;0.93;;;7.40;75.20;;;;;;5033380;28;20425;-81
2021/05/04 12:13:08;;;;;;;2.85;0.60;;;6.30;79.60;;;;;;5032456;28;20021;-85
2021/05/04 12:15:42;;;;;;;1.63;1.20;;;5.80;83.70;;;;;;5014883;28;20070;-87
2021/05/04 12:18:25;;;;;;;1.45;0.82;;;5.70;86.70;;;;;;5033996;28;20383;-85
2021/05/04 12:20:53;;;;;;;1.83;1.30;;;6.00;87.10;;;;;;5033172;28;20021;-85
2021/05/04 12:23:32;;;;;;;9.30;1.40;;;5.90;87.00;;;;;;5032711;28;20022;-84
2021/05/04 12:26:07;;;;;;;4.93;1.67;;;6.10;86.70;;;;;;5032754;28;20033;-84
2021/05/04 12:28:36;;;;;;;1.80;0.80;;;6.40;86.80;;;;;;5034610;28;20060;-83
2021/05/04 12:31:08;;;;;;;4.15;1.00;;;6.40;84.90;;;;;;5052814;28;20033;-84
2021/05/04 12:33:35;;;;;;;2.42;0.93;;;6.70;84.00;;;;;;5044940;28;20032;-84
2021/05/04 12:36:22;;;;;;;4.40;0.90;;;7.00;84.40;;;;;;5043275;28;20033;-84
2021/05/04 12:38:56;;;;;;;3.50;1.57;;;7.00;82.70;;;;;;5050620;28;20099;-84
2021/05/04 12:41:36;;;;;;;2.13;0.60;;;7.30;82.40;;;;;;5058162;28;20047;-88
2021/05/04 12:44:14;;;;;;;1.77;0.82;;;7.40;81.10;;;;;;5019229;28;20064;-90
2021/05/04 12:46:48;;;;;;;6.05;1.02;;;7.10;79.30;;;;;;5025820;28;20025;-82
2021/05/04 12:49:17;;;;;;;1.08;0.65;;;7.00;80.70;;;;;;5055680;28;20024;-86
2021/05/04 12:51:49;;;;;;;0.70;0.70;;;6.90;81.10;;;;;;5040285;28;20043;-86
2021/05/04 12:54:21;;;;;;;0.85;0.60;;;7.00;80.90;;;;;;5056557;28;20099;-86
2021/05/04 12:56:54;;;;;;;0.80;0.65;;;7.00;82.20;;;;;;5057160;28;20032;-83
2021/05/04 12:59:28;;;;;;;2.60;0.80;;;6.90;82.50;;;;;;5052755;28;20033;-84
2021/05/04 13:01:56;;;;;;;1.08;0.98;;;6.80;83.30;;;;;;5059630;28;20063;-84
2021/05/04 13:04:58;;;;;;;;;;;6.80;83.60;;;;;;5030250;28;20035;-84
2021/05/04 13:07:44;;;;;;;3.90;0.80;;;6.80;82.00;;;;;;5031244;28;19908;-87
2021/05/04 13:32:13;;;;;;;0.98;0.60;;;7.70;76.30;;;;;;5058223;28;20379;-86
2021/05/04 13:34:51;;;;;;;1.60;0.80;;;7.60;75.00;;;;;;5058097;28;20032;-87
2021/05/04 13:37:36;;;;;;;1.40;0.65;;;7.80;75.50;;;;;;5054111;28;20127;-86
2021/05/04 13:48:22;;;;;;;5.35;1.83;;;7.30;76.50;;;;;;5054846;28;20036;-85